sensor_id;sensor_type;location;lat;lon;timestamp;temperature;humidity
36716;DHT22;22699;51.034;3.730;2022-11-20T00:02:24;6.50;99.90
36716;DHT22;22699;51.034;3.730;2022-11-20T00:04:49;6.50;99.90
36716;DHT22;22699;51.034;3.730;2022-11-20T00:07:15;6.50;99.90
36716;DHT22;22699;51.034;3.730;2022-11-20T00:09:40;6.60;99.90
36716;DHT22;22699;51.034;3.730;2022-11-20T00:12:06;6.60;99.90
36716;DHT22;22699;51.034;3.730;2022-11-20T00:14:31;6.60;99.90
36716;DHT22;22699;51.034;3.730;2022-11-20T00:16:57;6.60;99.90
36716;DHT22;22699;51.034;3.730;2022-11-20T00:19:23;6.50;99.90
36716;DHT22;22699;51.034;3.730;2022-11-20T00:21:48;6.40;99.90
36716;DHT22;22699;51.034;3.730;2022-11-20T00:24:16;6.40;99.90
36716;DHT22;22699;51.034;3.730;2022-11-20T00:26:42;6.50;99.90
36716;DHT22;22699;51.034;3.730;2022-11-20T00:29:08;6.50;99.90
36716;DHT22;22699;51.034;3.730;2022-11-20T00:31:34;6.60;99.90
36716;DHT22;22699;51.034;3.730;2022-11-20T00:34:00;6.50;99.90
36716;DHT22;22699;51.034;3.730;2022-11-20T00:36:26;6.30;99.90
36716;DHT22;22699;51.034;3.730;2022-11-20T00:38:52;6.20;99.90
36716;DHT22;22699;51.034;3.730;2022-11-20T00:41:18;6.20;99.90
36716;DHT22;22699;51.034;3.730;2022-11-20T00:43:43;6.40;99.90
36716;DHT22;22699;51.034;3.730;2022-11-20T00:46:11;6.40;99.90
36716;DHT22;22699;51.034;3.730;2022-11-20T00:48:37;6.20;99.90
36716;DHT22;22699;51.034;3.730;2022-11-20T00:51:03;6.00;99.90
36716;DHT22;22699;51.034;3.730;2022-11-20T00:53:30;5.90;99.90
36716;DHT22;22699;51.034;3.730;2022-11-20T00:55:56;5.80;99.90
36716;DHT22;22699;51.034;3.730;2022-11-20T00:58:22;5.90;99.90
36716;DHT22;22699;51.034;3.730;2022-11-20T01:00:48;6.00;99.90
36716;DHT22;22699;51.034;3.730;2022-11-20T01:03:15;6.10;99.90
36716;DHT22;22699;51.034;3.730;2022-11-20T01:05:41;6.20;99.90
36716;DHT22;22699;51.034;3.730;2022-11-20T01:08:07;6.40;99.90
36716;DHT22;22699;51.034;3.730;2022-11-20T01:10:32;6.50;99.90
36716;DHT22;22699;51.034;3.730;2022-11-20T01:12:58;6.50;99.90
36716;DHT22;22699;51.034;3.730;2022-11-20T01:15:41;6.30;99.90
36716;DHT22;22699;51.034;3.730;2022-11-20T01:18:07;6.10;99.90
36716;DHT22;22699;51.034;3.730;2022-11-20T01:20:36;6.10;99.90
36716;DHT22;22699;51.034;3.730;2022-11-20T01:23:04;6.30;99.90
36716;DHT22;22699;51.034;3.730;2022-11-20T01:25:30;6.40;99.90
36716;DHT22;22699;51.034;3.730;2022-11-20T01:27:55;6.50;99.90
36716;DHT22;22699;51.034;3.730;2022-11-20T01:30:22;6.40;99.90
36716;DHT22;22699;51.034;3.730;2022-11-20T01:32:47;6.40;99.90
36716;DHT22;22699;51.034;3.730;2022-11-20T01:35:13;6.30;99.90
36716;DHT22;22699;51.034;3.730;2022-11-20T01:37:38;6.10;99.90
36716;DHT22;22699;51.034;3.730;2022-11-20T01:40:04;6.10;99.90
36716;DHT22;22699;51.034;3.730;2022-11-20T01:42:30;6.20;99.90
36716;DHT22;22699;51.034;3.730;2022-11-20T01:47:59;6.50;99.90
36716;DHT22;22699;51.034;3.730;2022-11-20T01:50:25;6.50;99.90
36716;DHT22;22699;51.034;3.730;2022-11-20T01:52:55;6.50;99.90
36716;DHT22;22699;51.034;3.730;2022-11-20T01:55:32;6.60;99.90
36716;DHT22;22699;51.034;3.730;2022-11-20T01:58:00;6.50;99.90
36716;DHT22;22699;51.034;3.730;2022-11-20T02:00:26;6.40;99.90
36716;DHT22;22699;51.034;3.730;2022-11-20T02:02:53;6.30;99.90
36716;DHT22;22699;51.034;3.730;2022-11-20T02:07:45;6.20;99.90
36716;DHT22;22699;51.034;3.730;2022-11-20T02:10:11;6.10;99.90
36716;DHT22;22699;51.034;3.730;2022-11-20T02:12:37;6.00;99.90
36716;DHT22;22699;51.034;3.730;2022-11-20T02:15:41;5.80;99.90
36716;DHT22;22699;51.034;3.730;2022-11-20T02:18:07;5.60;99.90
36716;DHT22;22699;51.034;3.730;2022-11-20T02:20:33;5.60;99.90
36716;DHT22;22699;51.034;3.730;2022-11-20T02:23:02;5.60;99.90
36716;DHT22;22699;51.034;3.730;2022-11-20T02:25:29;5.60;99.90
36716;DHT22;22699;51.034;3.730;2022-11-20T02:27:56;5.50;99.90
36716;DHT22;22699;51.034;3.730;2022-11-20T02:30:22;5.50;99.90
36716;DHT22;22699;51.034;3.730;2022-11-20T02:32:47;5.50;99.90
36716;DHT22;22699;51.034;3.730;2022-11-20T02:37:44;5.60;99.90
36716;DHT22;22699;51.034;3.730;2022-11-20T02:40:12;5.80;99.90
36716;DHT22;22699;51.034;3.730;2022-11-20T02:42:38;6.00;99.90
36716;DHT22;22699;51.034;3.730;2022-11-20T02:45:04;6.10;99.90
36716;DHT22;22699;51.034;3.730;2022-11-20T02:47:30;6.10;99.90
36716;DHT22;22699;51.034;3.730;2022-11-20T02:49:56;6.20;99.90
36716;DHT22;22699;51.034;3.730;2022-11-20T02:52:21;6.30;99.90
36716;DHT22;22699;51.034;3.730;2022-11-20T02:54:47;6.30;99.90
36716;DHT22;22699;51.034;3.730;2022-11-20T02:57:13;6.40;99.90
36716;DHT22;22699;51.034;3.730;2022-11-20T02:59:38;6.40;99.90
36716;DHT22;22699;51.034;3.730;2022-11-20T03:02:04;6.40;99.90
36716;DHT22;22699;51.034;3.730;2022-11-20T03:04:30;6.30;99.90
36716;DHT22;22699;51.034;3.730;2022-11-20T03:06:55;6.40;99.90
36716;DHT22;22699;51.034;3.730;2022-11-20T03:09:21;6.40;99.90
36716;DHT22;22699;51.034;3.730;2022-11-20T03:11:46;6.30;99.90
36716;DHT22;22699;51.034;3.730;2022-11-20T03:14:12;6.30;99.90
36716;DHT22;22699;51.034;3.730;2022-11-20T03:16:38;6.50;99.90
36716;DHT22;22699;51.034;3.730;2022-11-20T03:19:05;6.60;99.90
36716;DHT22;22699;51.034;3.730;2022-11-20T03:21:32;6.60;99.90
36716;DHT22;22699;51.034;3.730;2022-11-20T03:23:57;6.70;99.90
36716;DHT22;22699;51.034;3.730;2022-11-20T03:26:24;6.60;99.90
36716;DHT22;22699;51.034;3.730;2022-11-20T03:28:51;6.60;99.90
36716;DHT22;22699;51.034;3.730;2022-11-20T03:31:17;6.50;99.90
36716;DHT22;22699;51.034;3.730;2022-11-20T03:33:44;6.30;99.90
36716;DHT22;22699;51.034;3.730;2022-11-20T03:36:11;6.20;99.90
36716;DHT22;22699;51.034;3.730;2022-11-20T03:38:36;6.20;99.90
36716;DHT22;22699;51.034;3.730;2022-11-20T03:41:04;6.40;99.90
36716;DHT22;22699;51.034;3.730;2022-11-20T03:43:30;6.50;99.90
36716;DHT22;22699;51.034;3.730;2022-11-20T03:45:55;6.40;99.90
36716;DHT22;22699;51.034;3.730;2022-11-20T03:48:21;6.40;99.90
36716;DHT22;22699;51.034;3.730;2022-11-20T03:50:46;6.50;99.90
36716;DHT22;22699;51.034;3.730;2022-11-20T03:53:15;6.60;99.90
36716;DHT22;22699;51.034;3.730;2022-11-20T03:55:41;6.60;99.90
36716;DHT22;22699;51.034;3.730;2022-11-20T03:58:07;6.60;99.90
36716;DHT22;22699;51.034;3.730;2022-11-20T04:00:32;6.50;99.90
36716;DHT22;22699;51.034;3.730;2022-11-20T04:02:58;6.50;99.90
36716;DHT22;22699;51.034;3.730;2022-11-20T04:05:24;6.50;99.90
36716;DHT22;22699;51.034;3.730;2022-11-20T04:07:50;6.50;99.90
36716;DHT22;22699;51.034;3.730;2022-11-20T04:10:15;6.80;99.90
36716;DHT22;22699;51.034;3.730;2022-11-20T04:12:41;6.80;99.90
36716;DHT22;22699;51.034;3.730;2022-11-20T04:15:06;6.80;99.90
36716;DHT22;22699;51.034;3.730;2022-11-20T04:17:32;6.80;99.90
36716;DHT22;22699;51.034;3.730;2022-11-20T04:19:57;6.70;99.90
36716;DHT22;22699;51.034;3.730;2022-11-20T04:22:23;6.50;99.90
36716;DHT22;22699;51.034;3.730;2022-11-20T04:24:54;6.30;99.90
36716;DHT22;22699;51.034;3.730;2022-11-20T04:27:20;6.40;99.90
36716;DHT22;22699;51.034;3.730;2022-11-20T04:29:45;6.40;99.90
36716;DHT22;22699;51.034;3.730;2022-11-20T04:32:11;6.50;99.90
36716;DHT22;22699;51.034;3.730;2022-11-20T04:34:36;6.60;99.90
36716;DHT22;22699;51.034;3.730;2022-11-20T04:37:02;6.60;99.90
36716;DHT22;22699;51.034;3.730;2022-11-20T04:39:27;6.70;99.90
36716;DHT22;22699;51.034;3.730;2022-11-20T04:41:56;6.60;99.90
36716;DHT22;22699;51.034;3.730;2022-11-20T04:44:40;6.50;99.90
36716;DHT22;22699;51.034;3.730;2022-11-20T04:47:06;6.40;99.90
36716;DHT22;22699;51.034;3.730;2022-11-20T04:49:31;6.50;99.90
36716;DHT22;22699;51.034;3.730;2022-11-20T04:51:57;6.30;99.90
36716;DHT22;22699;51.034;3.730;2022-11-20T04:54:23;6.40;99.90
36716;DHT22;22699;51.034;3.730;2022-11-20T04:56:49;6.40;99.90
36716;DHT22;22699;51.034;3.730;2022-11-20T04:59:15;6.40;99.90
36716;DHT22;22699;51.034;3.730;2022-11-20T05:01:40;6.30;99.90
36716;DHT22;22699;51.034;3.730;2022-11-20T05:04:06;6.10;99.90
36716;DHT22;22699;51.034;3.730;2022-11-20T05:06:31;6.20;99.90
36716;DHT22;22699;51.034;3.730;2022-11-20T05:08:57;6.40;99.90
36716;DHT22;22699;51.034;3.730;2022-11-20T05:11:22;6.50;99.90
36716;DHT22;22699;51.034;3.730;2022-11-20T05:13:48;6.50;99.90
36716;DHT22;22699;51.034;3.730;2022-11-20T05:16:15;6.50;99.90
36716;DHT22;22699;51.034;3.730;2022-11-20T05:18:42;6.60;99.90
36716;DHT22;22699;51.034;3.730;2022-11-20T05:21:08;6.70;99.90
36716;DHT22;22699;51.034;3.730;2022-11-20T05:23:34;6.60;99.90
36716;DHT22;22699;51.034;3.730;2022-11-20T05:26:00;6.60;99.90
36716;DHT22;22699;51.034;3.730;2022-11-20T05:28:26;6.60;99.90
36716;DHT22;22699;51.034;3.730;2022-11-20T05:30:53;6.60;99.90
36716;DHT22;22699;51.034;3.730;2022-11-20T05:33:18;6.60;99.90
36716;DHT22;22699;51.034;3.730;2022-11-20T05:35:44;6.70;99.90
36716;DHT22;22699;51.034;3.730;2022-11-20T05:38:09;6.40;99.90
36716;DHT22;22699;51.034;3.730;2022-11-20T05:40:35;6.40;99.90
36716;DHT22;22699;51.034;3.730;2022-11-20T05:43:01;6.40;99.90
36716;DHT22;22699;51.034;3.730;2022-11-20T05:45:26;6.30;99.90
36716;DHT22;22699;51.034;3.730;2022-11-20T05:47:52;6.30;99.90
36716;DHT22;22699;51.034;3.730;2022-11-20T05:50:18;6.20;99.90
36716;DHT22;22699;51.034;3.730;2022-11-20T05:52:43;6.20;99.90
36716;DHT22;22699;51.034;3.730;2022-11-20T05:55:09;6.30;99.90
36716;DHT22;22699;51.034;3.730;2022-11-20T05:57:34;6.30;99.90
36716;DHT22;22699;51.034;3.730;2022-11-20T06:00:00;6.20;99.90
36716;DHT22;22699;51.034;3.730;2022-11-20T06:02:26;6.30;99.90
36716;DHT22;22699;51.034;3.730;2022-11-20T06:04:51;6.30;99.90
36716;DHT22;22699;51.034;3.730;2022-11-20T06:07:17;6.30;99.90
36716;DHT22;22699;51.034;3.730;2022-11-20T06:09:43;6.60;99.90
36716;DHT22;22699;51.034;3.730;2022-11-20T06:12:09;6.70;99.90
36716;DHT22;22699;51.034;3.730;2022-11-20T06:14:34;6.70;99.90
36716;DHT22;22699;51.034;3.730;2022-11-20T06:17:00;6.50;99.90
36716;DHT22;22699;51.034;3.730;2022-11-20T06:19:25;6.30;99.90
36716;DHT22;22699;51.034;3.730;2022-11-20T06:21:51;6.20;99.90
36716;DHT22;22699;51.034;3.730;2022-11-20T06:24:16;6.20;99.90
36716;DHT22;22699;51.034;3.730;2022-11-20T06:26:42;6.40;99.90
36716;DHT22;22699;51.034;3.730;2022-11-20T06:29:08;6.50;99.90
36716;DHT22;22699;51.034;3.730;2022-11-20T06:31:34;6.60;99.90
36716;DHT22;22699;51.034;3.730;2022-11-20T06:34:05;6.50;99.90
36716;DHT22;22699;51.034;3.730;2022-11-20T06:36:31;6.50;99.90
36716;DHT22;22699;51.034;3.730;2022-11-20T06:38:57;6.40;99.90
36716;DHT22;22699;51.034;3.730;2022-11-20T06:41:23;6.30;99.90
36716;DHT22;22699;51.034;3.730;2022-11-20T06:43:48;6.20;99.90
36716;DHT22;22699;51.034;3.730;2022-11-20T06:46:14;6.20;99.90
36716;DHT22;22699;51.034;3.730;2022-11-20T06:48:42;6.20;99.90
36716;DHT22;22699;51.034;3.730;2022-11-20T06:51:08;6.40;99.90
36716;DHT22;22699;51.034;3.730;2022-11-20T06:53:34;6.50;99.90
36716;DHT22;22699;51.034;3.730;2022-11-20T06:56:00;6.50;99.90
36716;DHT22;22699;51.034;3.730;2022-11-20T06:58:26;6.40;99.90
36716;DHT22;22699;51.034;3.730;2022-11-20T07:00:52;6.40;99.90
36716;DHT22;22699;51.034;3.730;2022-11-20T07:03:17;6.30;99.90
36716;DHT22;22699;51.034;3.730;2022-11-20T07:05:43;6.20;99.90
36716;DHT22;22699;51.034;3.730;2022-11-20T07:08:10;6.30;99.90
36716;DHT22;22699;51.034;3.730;2022-11-20T07:10:35;6.30;99.90
36716;DHT22;22699;51.034;3.730;2022-11-20T07:13:01;6.50;99.90
36716;DHT22;22699;51.034;3.730;2022-11-20T07:15:26;6.50;99.90
36716;DHT22;22699;51.034;3.730;2022-11-20T07:17:52;6.60;99.90
36716;DHT22;22699;51.034;3.730;2022-11-20T07:20:18;6.80;99.90
36716;DHT22;22699;51.034;3.730;2022-11-20T07:22:43;6.80;99.90
36716;DHT22;22699;51.034;3.730;2022-11-20T07:25:10;6.90;99.90
36716;DHT22;22699;51.034;3.730;2022-11-20T07:27:41;6.80;99.90
36716;DHT22;22699;51.034;3.730;2022-11-20T07:30:08;6.70;99.90
36716;DHT22;22699;51.034;3.730;2022-11-20T07:32:33;6.50;99.90
36716;DHT22;22699;51.034;3.730;2022-11-20T07:34:59;6.50;99.90
36716;DHT22;22699;51.034;3.730;2022-11-20T07:37:24;6.60;99.90
36716;DHT22;22699;51.034;3.730;2022-11-20T07:39:50;6.80;99.90
36716;DHT22;22699;51.034;3.730;2022-11-20T07:42:15;6.80;99.90
36716;DHT22;22699;51.034;3.730;2022-11-20T07:44:41;7.00;99.90
36716;DHT22;22699;51.034;3.730;2022-11-20T07:47:06;7.10;99.90
36716;DHT22;22699;51.034;3.730;2022-11-20T07:49:32;7.00;99.90
36716;DHT22;22699;51.034;3.730;2022-11-20T07:51:58;6.80;99.90
36716;DHT22;22699;51.034;3.730;2022-11-20T07:54:24;6.80;99.90
36716;DHT22;22699;51.034;3.730;2022-11-20T07:56:49;6.80;99.90
36716;DHT22;22699;51.034;3.730;2022-11-20T07:59:15;6.90;99.90
36716;DHT22;22699;51.034;3.730;2022-11-20T08:01:41;6.80;99.90
36716;DHT22;22699;51.034;3.730;2022-11-20T08:04:09;6.60;99.90
36716;DHT22;22699;51.034;3.730;2022-11-20T08:06:38;6.60;99.90
36716;DHT22;22699;51.034;3.730;2022-11-20T08:09:04;6.70;99.90
36716;DHT22;22699;51.034;3.730;2022-11-20T08:11:29;6.80;99.90
36716;DHT22;22699;51.034;3.730;2022-11-20T08:14:14;6.80;99.90
36716;DHT22;22699;51.034;3.730;2022-11-20T08:16:41;7.00;99.90
36716;DHT22;22699;51.034;3.730;2022-11-20T08:19:17;6.90;99.90
36716;DHT22;22699;51.034;3.730;2022-11-20T08:21:43;6.80;99.90
36716;DHT22;22699;51.034;3.730;2022-11-20T08:24:08;7.00;99.90
36716;DHT22;22699;51.034;3.730;2022-11-20T08:26:35;6.90;99.90
36716;DHT22;22699;51.034;3.730;2022-11-20T08:29:00;6.90;99.90
36716;DHT22;22699;51.034;3.730;2022-11-20T08:31:26;6.90;99.90
36716;DHT22;22699;51.034;3.730;2022-11-20T08:33:53;7.10;99.90
36716;DHT22;22699;51.034;3.730;2022-11-20T08:36:19;7.20;99.90
36716;DHT22;22699;51.034;3.730;2022-11-20T08:38:49;7.40;99.90
36716;DHT22;22699;51.034;3.730;2022-11-20T08:41:15;7.40;99.90
36716;DHT22;22699;51.034;3.730;2022-11-20T08:43:51;7.30;99.90
36716;DHT22;22699;51.034;3.730;2022-11-20T08:46:17;7.30;99.90
36716;DHT22;22699;51.034;3.730;2022-11-20T08:48:43;7.30;99.90
36716;DHT22;22699;51.034;3.730;2022-11-20T08:51:09;7.40;99.90
36716;DHT22;22699;51.034;3.730;2022-11-20T08:53:35;7.40;99.90
36716;DHT22;22699;51.034;3.730;2022-11-20T08:56:00;7.30;99.90
36716;DHT22;22699;51.034;3.730;2022-11-20T08:58:26;7.20;99.90
36716;DHT22;22699;51.034;3.730;2022-11-20T09:00:52;7.20;99.90
36716;DHT22;22699;51.034;3.730;2022-11-20T09:03:18;7.40;99.90
36716;DHT22;22699;51.034;3.730;2022-11-20T09:05:43;7.60;99.90
36716;DHT22;22699;51.034;3.730;2022-11-20T09:08:09;7.60;99.90
36716;DHT22;22699;51.034;3.730;2022-11-20T09:10:34;7.60;99.90
36716;DHT22;22699;51.034;3.730;2022-11-20T09:13:00;7.70;99.90
36716;DHT22;22699;51.034;3.730;2022-11-20T09:15:26;7.80;99.90
36716;DHT22;22699;51.034;3.730;2022-11-20T09:17:55;7.70;99.90
36716;DHT22;22699;51.034;3.730;2022-11-20T09:20:21;7.80;99.90
36716;DHT22;22699;51.034;3.730;2022-11-20T09:22:47;7.80;99.90
36716;DHT22;22699;51.034;3.730;2022-11-20T09:25:12;7.90;99.90
36716;DHT22;22699;51.034;3.730;2022-11-20T09:27:38;7.90;99.90
36716;DHT22;22699;51.034;3.730;2022-11-20T09:30:04;7.80;99.90
36716;DHT22;22699;51.034;3.730;2022-11-20T09:32:29;7.80;99.90
36716;DHT22;22699;51.034;3.730;2022-11-20T09:34:56;7.80;99.90
36716;DHT22;22699;51.034;3.730;2022-11-20T09:37:23;7.80;99.90
36716;DHT22;22699;51.034;3.730;2022-11-20T09:39:48;7.80;99.90
36716;DHT22;22699;51.034;3.730;2022-11-20T09:42:58;8.10;99.90
36716;DHT22;22699;51.034;3.730;2022-11-20T09:47:52;8.20;99.90
36716;DHT22;22699;51.034;3.730;2022-11-20T09:50:35;8.10;99.90
36716;DHT22;22699;51.034;3.730;2022-11-20T09:53:04;8.00;99.90
36716;DHT22;22699;51.034;3.730;2022-11-20T09:55:34;8.00;99.90
36716;DHT22;22699;51.034;3.730;2022-11-20T09:58:02;8.10;99.90
36716;DHT22;22699;51.034;3.730;2022-11-20T10:00:30;8.20;99.90
36716;DHT22;22699;51.034;3.730;2022-11-20T10:03:01;8.40;99.90
36716;DHT22;22699;51.034;3.730;2022-11-20T10:08:44;8.70;99.90
36716;DHT22;22699;51.034;3.730;2022-11-20T10:10:56;8.80;99.90
36716;DHT22;22699;51.034;3.730;2022-11-20T10:15:55;9.00;99.90
36716;DHT22;22699;51.034;3.730;2022-11-20T10:18:27;8.90;99.90
36716;DHT22;22699;51.034;3.730;2022-11-20T10:29:12;9.00;99.90
36716;DHT22;22699;51.034;3.730;2022-11-20T10:31:44;8.90;99.90
36716;DHT22;22699;51.034;3.730;2022-11-20T10:39:22;9.40;99.90
36716;DHT22;22699;51.034;3.730;2022-11-20T10:41:52;9.50;99.90
36716;DHT22;22699;51.034;3.730;2022-11-20T10:44:25;9.40;99.90
36716;DHT22;22699;51.034;3.730;2022-11-20T10:47:17;9.30;99.90
36716;DHT22;22699;51.034;3.730;2022-11-20T10:49:43;9.50;99.90
36716;DHT22;22699;51.034;3.730;2022-11-20T10:54:59;9.30;99.90
36716;DHT22;22699;51.034;3.730;2022-11-20T11:00:14;10.10;99.90
36716;DHT22;22699;51.034;3.730;2022-11-20T11:02:52;9.80;99.90
36716;DHT22;22699;51.034;3.730;2022-11-20T11:05:38;9.80;99.90
36716;DHT22;22699;51.034;3.730;2022-11-20T11:08:07;9.80;99.90
36716;DHT22;22699;51.034;3.730;2022-11-20T11:13:00;10.20;99.90
36716;DHT22;22699;51.034;3.730;2022-11-20T11:15:45;10.00;99.90
36716;DHT22;22699;51.034;3.730;2022-11-20T11:18:10;9.70;99.90
36716;DHT22;22699;51.034;3.730;2022-11-20T11:20:36;9.70;99.90
36716;DHT22;22699;51.034;3.730;2022-11-20T11:23:02;9.40;99.90
36716;DHT22;22699;51.034;3.730;2022-11-20T11:28:17;9.40;99.90
36716;DHT22;22699;51.034;3.730;2022-11-20T11:30:42;9.60;99.90
36716;DHT22;22699;51.034;3.730;2022-11-20T11:33:17;9.60;99.90
36716;DHT22;22699;51.034;3.730;2022-11-20T11:35:53;9.50;99.90
36716;DHT22;22699;51.034;3.730;2022-11-20T11:38:26;9.20;99.90
36716;DHT22;22699;51.034;3.730;2022-11-20T11:40:53;9.10;99.90
36716;DHT22;22699;51.034;3.730;2022-11-20T11:43:19;9.30;99.90
36716;DHT22;22699;51.034;3.730;2022-11-20T11:46:23;9.30;99.90
36716;DHT22;22699;51.034;3.730;2022-11-20T11:51:26;9.20;99.90
36716;DHT22;22699;51.034;3.730;2022-11-20T11:53:54;9.20;99.90
36716;DHT22;22699;51.034;3.730;2022-11-20T11:56:20;9.20;99.90
36716;DHT22;22699;51.034;3.730;2022-11-20T11:58:52;9.10;99.90
36716;DHT22;22699;51.034;3.730;2022-11-20T12:03:52;9.00;99.90
36716;DHT22;22699;51.034;3.730;2022-11-20T12:06:20;9.00;99.90
36716;DHT22;22699;51.034;3.730;2022-11-20T12:18:58;8.90;99.90
36716;DHT22;22699;51.034;3.730;2022-11-20T12:24:07;8.50;99.90
36716;DHT22;22699;51.034;3.730;2022-11-20T12:31:56;8.60;99.90
36716;DHT22;22699;51.034;3.730;2022-11-20T12:43:19;8.40;99.90
36716;DHT22;22699;51.034;3.730;2022-11-20T12:46:25;8.40;99.90
36716;DHT22;22699;51.034;3.730;2022-11-20T12:51:51;8.50;99.90
36716;DHT22;22699;51.034;3.730;2022-11-20T12:59:49;8.50;99.90
36716;DHT22;22699;51.034;3.730;2022-11-20T13:07:56;8.60;99.90
36716;DHT22;22699;51.034;3.730;2022-11-20T13:10:32;8.60;99.90
36716;DHT22;22699;51.034;3.730;2022-11-20T13:18:56;8.80;99.90
36716;DHT22;22699;51.034;3.730;2022-11-20T13:21:41;8.60;99.90
36716;DHT22;22699;51.034;3.730;2022-11-20T13:24:29;8.70;99.90
36716;DHT22;22699;51.034;3.730;2022-11-20T13:29:35;8.70;99.90
36716;DHT22;22699;51.034;3.730;2022-11-20T13:34:37;8.50;99.90
36716;DHT22;22699;51.034;3.730;2022-11-20T13:37:03;8.60;99.90
36716;DHT22;22699;51.034;3.730;2022-11-20T13:39:35;8.60;99.90
36716;DHT22;22699;51.034;3.730;2022-11-20T13:44:42;8.70;99.90
36716;DHT22;22699;51.034;3.730;2022-11-20T13:47:25;8.70;99.90
36716;DHT22;22699;51.034;3.730;2022-11-20T13:49:53;8.70;99.90
36716;DHT22;22699;51.034;3.730;2022-11-20T13:55:02;8.70;99.90
36716;DHT22;22699;51.034;3.730;2022-11-20T14:00:15;8.80;99.90
36716;DHT22;22699;51.034;3.730;2022-11-20T14:02:41;8.60;99.90
36716;DHT22;22699;51.034;3.730;2022-11-20T14:05:20;8.70;99.90
36716;DHT22;22699;51.034;3.730;2022-11-20T14:07:50;8.70;99.90
36716;DHT22;22699;51.034;3.730;2022-11-20T14:10:27;8.80;99.90
36716;DHT22;22699;51.034;3.730;2022-11-20T14:12:53;8.80;99.90
36716;DHT22;22699;51.034;3.730;2022-11-20T14:15:29;8.80;99.90
36716;DHT22;22699;51.034;3.730;2022-11-20T14:17:58;9.20;99.90
36716;DHT22;22699;51.034;3.730;2022-11-20T14:20:27;9.10;99.90
36716;DHT22;22699;51.034;3.730;2022-11-20T14:22:54;9.20;99.90
36716;DHT22;22699;51.034;3.730;2022-11-20T14:25:22;9.30;99.90
36716;DHT22;22699;51.034;3.730;2022-11-20T14:27:59;9.20;99.90
36716;DHT22;22699;51.034;3.730;2022-11-20T14:30:51;9.20;99.90
36716;DHT22;22699;51.034;3.730;2022-11-20T14:33:46;9.30;99.90
36716;DHT22;22699;51.034;3.730;2022-11-20T14:36:18;9.30;99.90
36716;DHT22;22699;51.034;3.730;2022-11-20T14:38:47;9.40;99.90
36716;DHT22;22699;51.034;3.730;2022-11-20T14:41:31;9.30;99.90
36716;DHT22;22699;51.034;3.730;2022-11-20T14:43:59;9.40;99.90
36716;DHT22;22699;51.034;3.730;2022-11-20T14:46:25;9.50;99.90
36716;DHT22;22699;51.034;3.730;2022-11-20T14:48:55;9.70;99.90
36716;DHT22;22699;51.034;3.730;2022-11-20T14:51:34;9.70;99.90
36716;DHT22;22699;51.034;3.730;2022-11-20T14:54:21;9.90;99.90
36716;DHT22;22699;51.034;3.730;2022-11-20T14:57:18;10.10;99.90
36716;DHT22;22699;51.034;3.730;2022-11-20T14:59:48;10.20;99.90
36716;DHT22;22699;51.034;3.730;2022-11-20T15:02:22;10.40;99.90
36716;DHT22;22699;51.034;3.730;2022-11-20T15:04:49;10.10;99.90
36716;DHT22;22699;51.034;3.730;2022-11-20T15:07:29;10.00;99.90
36716;DHT22;22699;51.034;3.730;2022-11-20T15:10:09;10.00;99.90
36716;DHT22;22699;51.034;3.730;2022-11-20T15:12:37;10.00;99.90
36716;DHT22;22699;51.034;3.730;2022-11-20T15:15:17;10.10;99.90
36716;DHT22;22699;51.034;3.730;2022-11-20T15:18:14;10.00;99.90
36716;DHT22;22699;51.034;3.730;2022-11-20T15:20:41;10.10;99.90
36716;DHT22;22699;51.034;3.730;2022-11-20T15:23:19;10.20;99.90
36716;DHT22;22699;51.034;3.730;2022-11-20T15:26:06;10.00;99.90
36716;DHT22;22699;51.034;3.730;2022-11-20T15:28:52;9.90;99.90
36716;DHT22;22699;51.034;3.730;2022-11-20T15:31:22;10.00;99.90
36716;DHT22;22699;51.034;3.730;2022-11-20T15:34:04;10.10;99.90
36716;DHT22;22699;51.034;3.730;2022-11-20T15:36:33;9.80;99.90
36716;DHT22;22699;51.034;3.730;2022-11-20T15:39:05;9.80;99.90
36716;DHT22;22699;51.034;3.730;2022-11-20T15:41:35;9.90;99.90
36716;DHT22;22699;51.034;3.730;2022-11-20T15:44:03;10.10;99.90
36716;DHT22;22699;51.034;3.730;2022-11-20T15:46:36;10.10;99.90
36716;DHT22;22699;51.034;3.730;2022-11-20T15:49:13;10.10;99.90
36716;DHT22;22699;51.034;3.730;2022-11-20T15:51:43;10.20;99.90
36716;DHT22;22699;51.034;3.730;2022-11-20T15:54:30;10.10;99.90
36716;DHT22;22699;51.034;3.730;2022-11-20T15:56:56;10.00;99.90
36716;DHT22;22699;51.034;3.730;2022-11-20T15:59:26;9.70;99.90
36716;DHT22;22699;51.034;3.730;2022-11-20T16:01:52;9.70;99.90
36716;DHT22;22699;51.034;3.730;2022-11-20T16:04:27;9.70;99.90
36716;DHT22;22699;51.034;3.730;2022-11-20T16:06:53;9.70;99.90
36716;DHT22;22699;51.034;3.730;2022-11-20T16:09:19;9.80;99.90
36716;DHT22;22699;51.034;3.730;2022-11-20T16:11:49;9.70;99.90
36716;DHT22;22699;51.034;3.730;2022-11-20T16:14:14;9.70;99.90
36716;DHT22;22699;51.034;3.730;2022-11-20T16:16:59;9.80;99.90
36716;DHT22;22699;51.034;3.730;2022-11-20T16:19:31;9.90;99.90
36716;DHT22;22699;51.034;3.730;2022-11-20T16:21:58;10.10;99.90
36716;DHT22;22699;51.034;3.730;2022-11-20T16:24:28;10.10;99.90
36716;DHT22;22699;51.034;3.730;2022-11-20T16:26:57;10.10;99.90
36716;DHT22;22699;51.034;3.730;2022-11-20T16:29:22;10.20;99.90
36716;DHT22;22699;51.034;3.730;2022-11-20T16:31:53;10.30;99.90
36716;DHT22;22699;51.034;3.730;2022-11-20T16:34:37;10.30;99.90
36716;DHT22;22699;51.034;3.730;2022-11-20T16:37:08;10.30;99.90
36716;DHT22;22699;51.034;3.730;2022-11-20T16:39:36;10.40;99.90
36716;DHT22;22699;51.034;3.730;2022-11-20T16:42:03;10.30;99.90
36716;DHT22;22699;51.034;3.730;2022-11-20T16:44:29;10.10;99.90
36716;DHT22;22699;51.034;3.730;2022-11-20T16:47:14;9.80;99.90
36716;DHT22;22699;51.034;3.730;2022-11-20T16:49:46;9.80;99.90
36716;DHT22;22699;51.034;3.730;2022-11-20T16:52:11;9.90;99.90
36716;DHT22;22699;51.034;3.730;2022-11-20T16:54:51;9.80;99.90
36716;DHT22;22699;51.034;3.730;2022-11-20T16:57:16;9.80;99.90
36716;DHT22;22699;51.034;3.730;2022-11-20T17:00:02;9.90;99.90
36716;DHT22;22699;51.034;3.730;2022-11-20T17:02:28;9.90;99.90
36716;DHT22;22699;51.034;3.730;2022-11-20T17:04:53;9.80;99.90
36716;DHT22;22699;51.034;3.730;2022-11-20T17:07:26;9.90;99.90
36716;DHT22;22699;51.034;3.730;2022-11-20T17:09:52;10.10;99.90
36716;DHT22;22699;51.034;3.730;2022-11-20T17:12:18;10.20;99.90
36716;DHT22;22699;51.034;3.730;2022-11-20T17:14:50;9.90;99.90
36716;DHT22;22699;51.034;3.730;2022-11-20T17:17:15;9.80;99.90
36716;DHT22;22699;51.034;3.730;2022-11-20T17:19:49;10.00;99.90
36716;DHT22;22699;51.034;3.730;2022-11-20T17:22:20;9.80;99.90
36716;DHT22;22699;51.034;3.730;2022-11-20T17:24:46;9.80;99.90
36716;DHT22;22699;51.034;3.730;2022-11-20T17:27:11;10.00;99.90
36716;DHT22;22699;51.034;3.730;2022-11-20T17:29:39;9.90;99.90
36716;DHT22;22699;51.034;3.730;2022-11-20T17:32:25;9.80;99.90
36716;DHT22;22699;51.034;3.730;2022-11-20T17:34:51;9.60;99.90
36716;DHT22;22699;51.034;3.730;2022-11-20T17:37:17;9.60;99.90
36716;DHT22;22699;51.034;3.730;2022-11-20T17:39:45;9.50;99.90
36716;DHT22;22699;51.034;3.730;2022-11-20T17:42:15;9.50;99.90